Time;durP1;ratioP1;P1;durP2;ratioP2;P2;SDS_P1;SDS_P2;PMS_P1;PMS_P2;Temp;Humidity;BMP_temperature;BMP_pressure;BME280_temperature;BME280_humidity;BME280_pressure;Samples;Min_cycle;Max_cycle;Signal;HPM_P1;HPM_P2
2023/10/18 00:00:58;;;;;;;17.42;6.90;;;;;;;;;;5020676;28;20029;-50
2023/10/18 00:03:31;;;;;;;9.18;6.20;;;;;;;;;;5015544;28;20053;-50
2023/10/18 00:05:59;;;;;;;15.70;6.90;;;;;;;;;;5022822;28;20026;-52
2023/10/18 00:08:25;;;;;;;10.18;6.50;;;;;;;;;;5033034;28;20479;-51
2023/10/18 00:10:55;;;;;;;9.35;6.80;;;;;;;;;;5033126;28;20037;-51
2023/10/18 00:13:25;;;;;;;12.57;6.50;;;;;;;;;;5030612;28;20029;-51
2023/10/18 00:15:53;;;;;;;14.15;6.53;;;;;;;;;;5015770;28;20033;-50
2023/10/18 00:18:20;;;;;;;19.23;6.70;;;;;;;;;;4994665;28;20034;-52
2023/10/18 00:20:46;;;;;;;9.40;5.68;;;;;;;;;;4995006;28;20041;-54
2023/10/18 00:23:13;;;;;;;12.50;6.05;;;;;;;;;;5033685;28;20044;-52
2023/10/18 00:25:39;;;;;;;15.97;6.77;;;;;;;;;;5017021;28;20048;-51
2023/10/18 00:28:08;;;;;;;10.75;6.60;;;;;;;;;;5034000;28;20036;-51
2023/10/18 00:30:35;;;;;;;16.52;7.95;;;;;;;;;;5033947;28;20033;-52
2023/10/18 00:33:03;;;;;;;10.02;6.70;;;;;;;;;;5034780;28;20148;-50
2023/10/18 00:35:32;;;;;;;;;;;;;;;;;;5053385;28;20025;-53
2023/10/18 00:37:58;;;;;;;14.07;5.88;;;;;;;;;;5034631;28;19916;-53
2023/10/18 00:43:04;;;;;;;12.60;6.82;;;;;;;;;;5052687;28;20037;-50
2023/10/18 00:45:31;;;;;;;15.27;7.10;;;;;;;;;;5033775;28;20445;-54
2023/10/18 00:48:05;;;;;;;14.32;7.10;;;;;;;;;;5052523;28;20025;-55
2023/10/18 00:50:33;;;;;;;10.40;6.50;;;;;;;;;;5052457;28;20134;-50
2023/10/18 00:53:01;;;;;;;11.25;6.80;;;;;;;;;;5011916;28;20067;-52
2023/10/18 00:55:30;;;;;;;19.00;7.93;;;;;;;;;;5001850;28;20030;-53
2023/10/18 00:57:57;;;;;;;11.10;7.60;;;;;;;;;;5041180;23;20013;-53
2023/10/18 01:00:24;;;;;;;13.23;8.20;;;;;;;;;;5044981;28;20065;-53
2023/10/18 01:02:57;;;;;;;10.00;7.78;;;;;;;;;;5014451;28;20056;-52
2023/10/18 01:05:25;;;;;;;15.98;7.88;;;;;;;;;;5032485;28;20102;-56
2023/10/18 01:07:53;;;;;;;13.18;8.05;;;;;;;;;;5029767;28;20087;-51
2023/10/18 01:10:24;;;;;;;13.80;8.48;;;;;;;;;;5008853;28;20048;-53
2023/10/18 01:12:54;;;;;;;11.23;7.43;;;;;;;;;;5030289;28;20471;-54
2023/10/18 01:15:21;;;;;;;20.02;9.07;;;;;;;;;;5026641;28;20025;-52
2023/10/18 01:17:47;;;;;;;16.50;8.68;;;;;;;;;;4994874;28;20113;-55
2023/10/18 01:22:59;;;;;;;12.15;9.18;;;;;;;;;;5012521;28;20120;-54
2023/10/18 01:25:25;;;;;;;14.68;8.93;;;;;;;;;;5002499;28;20028;-53
2023/10/18 01:27:51;;;;;;;14.80;8.80;;;;;;;;;;4995215;28;20034;-51
2023/10/18 01:30:19;;;;;;;15.23;8.95;;;;;;;;;;4998015;28;20037;-51
2023/10/18 01:32:45;;;;;;;17.58;9.32;;;;;;;;;;4994446;28;20026;-55
2023/10/18 01:35:13;;;;;;;13.27;10.03;;;;;;;;;;5019003;28;20108;-54
2023/10/18 01:37:39;;;;;;;18.63;9.77;;;;;;;;;;5022180;28;20512;-54
2023/10/18 01:40:21;;;;;;;12.07;9.32;;;;;;;;;;4999918;28;20064;-53
2023/10/18 01:42:55;;;;;;;15.85;9.23;;;;;;;;;;4994645;28;20025;-53
2023/10/18 01:45:22;;;;;;;12.07;7.53;;;;;;;;;;5013155;28;20029;-53
2023/10/18 01:47:50;;;;;;;13.25;8.98;;;;;;;;;;5000617;28;20033;-52
2023/10/18 01:50:18;;;;;;;16.85;8.98;;;;;;;;;;5011708;28;20057;-54
2023/10/18 01:52:45;;;;;;;19.50;9.88;;;;;;;;;;5027015;28;20108;-51
2023/10/18 01:55:12;;;;;;;18.15;9.52;;;;;;;;;;5029446;28;20108;-54
2023/10/18 01:57:43;;;;;;;12.40;9.32;;;;;;;;;;5007746;28;20494;-52
2023/10/18 02:00:19;;;;;;;11.95;9.30;;;;;;;;;;5019812;28;20045;-54
2023/10/18 02:02:49;;;;;;;14.68;9.23;;;;;;;;;;5025937;28;20025;-53
2023/10/18 02:05:18;;;;;;;12.02;8.82;;;;;;;;;;4994047;28;20083;-51
2023/10/18 02:07:47;;;;;;;16.00;9.15;;;;;;;;;;4994832;28;20058;-51
2023/10/18 02:10:23;;;;;;;15.02;9.07;;;;;;;;;;5026708;28;20498;-54
2023/10/18 02:12:50;;;;;;;17.45;9.60;;;;;;;;;;5012324;28;20037;-55
2023/10/18 02:15:16;;;;;;;;;;;;;;;;;;5008679;28;20034;-52
2023/10/18 02:17:51;;;;;;;14.07;9.30;;;;;;;;;;4994646;28;20320;-51
2023/10/18 02:20:27;;;;;;;17.17;11.07;;;;;;;;;;5025807;28;20034;-56
2023/10/18 02:22:59;;;;;;;19.83;9.57;;;;;;;;;;5012181;28;20029;-52
2023/10/18 02:28:08;;;;;;;13.38;9.30;;;;;;;;;;4994743;28;20040;-53
2023/10/18 02:30:38;;;;;;;16.02;9.55;;;;;;;;;;5023583;28;20036;-51
2023/10/18 02:33:05;;;;;;;15.65;10.00;;;;;;;;;;5012620;28;20026;-54
2023/10/18 02:35:33;;;;;;;14.13;10.27;;;;;;;;;;5013286;28;20021;-52
2023/10/18 02:38:08;;;;;;;14.40;10.35;;;;;;;;;;5011443;28;20026;-51
2023/10/18 02:40:38;;;;;;;15.48;9.82;;;;;;;;;;4998295;28;20396;-53
2023/10/18 02:43:08;;;;;;;14.27;10.52;;;;;;;;;;4995318;28;20091;-54
2023/10/18 02:45:34;;;;;;;16.40;10.65;;;;;;;;;;5017426;28;20034;-54
2023/10/18 02:48:00;;;;;;;16.95;11.05;;;;;;;;;;5022486;28;20470;-55
2023/10/18 02:50:30;;;;;;;;;;;;;;;;;;5007340;28;20226;-52
2023/10/18 02:52:57;;;;;;;15.52;9.60;;;;;;;;;;5019228;28;19909;-53
2023/10/18 02:55:26;;;;;;;15.43;10.88;;;;;;;;;;5016596;28;20018;-51
2023/10/18 02:57:52;;;;;;;14.40;10.38;;;;;;;;;;5024419;28;20029;-56
2023/10/18 03:00:20;;;;;;;19.60;10.43;;;;;;;;;;5005178;28;20030;-55
2023/10/18 03:02:46;;;;;;;17.70;11.77;;;;;;;;;;5010699;28;20034;-53
2023/10/18 03:05:12;;;;;;;17.63;10.63;;;;;;;;;;5004478;28;20033;-52
2023/10/18 03:07:41;;;;;;;14.15;10.30;;;;;;;;;;4993650;28;20030;-55
2023/10/18 03:10:20;;;;;;;18.45;10.70;;;;;;;;;;4996197;28;20037;-51
2023/10/18 03:12:46;;;;;;;17.10;10.95;;;;;;;;;;5008524;28;20064;-54
2023/10/18 03:15:17;;;;;;;16.77;9.80;;;;;;;;;;4981753;28;20499;-52
2023/10/18 03:17:44;;;;;;;18.55;10.18;;;;;;;;;;5028557;28;20036;-51
2023/10/18 03:20:21;;;;;;;17.52;11.52;;;;;;;;;;5033892;28;20033;-55
2023/10/18 03:22:49;;;;;;;18.10;9.85;;;;;;;;;;5048339;28;20399;-53
2023/10/18 03:25:16;;;;;;;;;;;;;;;;;;5001601;28;20022;-52
2023/10/18 03:27:50;;;;;;;19.02;10.52;;;;;;;;;;4996641;28;19959;-57
2023/10/18 03:30:20;;;;;;;13.23;9.35;;;;;;;;;;4997827;28;20488;-56
2023/10/18 03:32:54;;;;;;;13.57;10.40;;;;;;;;;;4996858;28;20108;-52
2023/10/18 03:35:20;;;;;;;18.77;10.20;;;;;;;;;;5003245;28;20037;-56
2023/10/18 03:37:47;;;;;;;19.23;11.02;;;;;;;;;;5013786;28;20037;-56
2023/10/18 03:40:19;;;;;;;18.33;10.52;;;;;;;;;;4980123;28;20034;-52
2023/10/18 03:42:46;;;;;;;17.02;10.43;;;;;;;;;;5015941;28;20487;-51
2023/10/18 03:45:21;;;;;;;22.25;11.95;;;;;;;;;;5014429;28;20504;-51
2023/10/18 03:48:00;;;;;;;15.05;10.18;;;;;;;;;;5024746;28;20030;-50
2023/10/18 03:50:47;;;;;;;18.50;10.65;;;;;;;;;;4996604;28;20038;-51
2023/10/18 03:53:13;;;;;;;17.48;11.07;;;;;;;;;;5013818;28;20492;-56
2023/10/18 03:55:42;;;;;;;19.88;10.98;;;;;;;;;;4995011;28;20072;-56
2023/10/18 03:58:08;;;;;;;17.15;10.65;;;;;;;;;;4995326;28;20290;-53
2023/10/18 04:00:37;;;;;;;18.50;10.75;;;;;;;;;;5015732;28;20048;-55
2023/10/18 04:03:12;;;;;;;18.20;12.35;;;;;;;;;;5032816;28;20037;-58
2023/10/18 04:05:42;;;;;;;19.13;11.82;;;;;;;;;;5032961;28;20048;-54
2023/10/18 04:08:15;;;;;;;13.77;9.68;;;;;;;;;;5047984;28;20103;-57
2023/10/18 04:10:41;;;;;;;18.02;11.52;;;;;;;;;;5033188;28;20448;-52
2023/10/18 04:13:14;;;;;;;20.87;11.60;;;;;;;;;;5048831;28;20554;-55
2023/10/18 04:15:57;;;;;;;15.38;11.15;;;;;;;;;;5033437;28;20029;-52
2023/10/18 04:18:25;;;;;;;16.23;11.70;;;;;;;;;;5033394;28;20504;-53
2023/10/18 04:20:52;;;;;;;16.48;10.90;;;;;;;;;;5032957;28;20025;-54
2023/10/18 04:23:19;;;;;;;18.83;12.10;;;;;;;;;;5033261;28;20044;-54
2023/10/18 04:25:57;;;;;;;17.90;11.75;;;;;;;;;;5033124;28;20033;-55
2023/10/18 04:28:25;;;;;;;16.50;11.70;;;;;;;;;;5033488;28;20037;-54
2023/10/18 04:30:59;;;;;;;17.92;11.40;;;;;;;;;;5033015;28;20041;-59
2023/10/18 04:33:28;;;;;;;16.50;11.90;;;;;;;;;;5048345;28;20503;-53
2023/10/18 04:35:56;;;;;;;16.25;11.10;;;;;;;;;;5032825;28;20109;-55
2023/10/18 04:38:36;;;;;;;18.20;13.13;;;;;;;;;;5032875;28;20025;-56
2023/10/18 04:41:10;;;;;;;18.63;11.65;;;;;;;;;;5032973;28;20026;-53
2023/10/18 04:43:37;;;;;;;17.67;11.43;;;;;;;;;;5032831;28;20022;-57
2023/10/18 04:54:01;;;;;;;24.02;11.85;;;;;;;;;;5032650;28;20448;-57
2023/10/18 04:56:32;;;;;;;21.55;11.65;;;;;;;;;;5032445;28;20033;-54
2023/10/18 04:59:14;;;;;;;18.35;11.38;;;;;;;;;;5032422;28;20502;-55
2023/10/18 05:04:24;;;;;;;16.42;12.00;;;;;;;;;;5032493;28;20060;-53
2023/10/18 05:06:54;;;;;;;15.35;11.55;;;;;;;;;;5032218;28;20022;-56
2023/10/18 05:12:29;;;;;;;15.63;11.50;;;;;;;;;;5032220;28;20152;-55
2023/10/18 05:17:26;;;;;;;14.27;10.75;;;;;;;;;;5032034;28;20033;-54
2023/10/18 05:19:56;;;;;;;19.83;12.13;;;;;;;;;;5047673;28;20033;-53
2023/10/18 05:22:25;;;;;;;17.58;11.23;;;;;;;;;;5047730;28;20037;-54
2023/10/18 05:25:07;;;;;;;20.13;12.38;;;;;;;;;;5032037;28;20029;-52
2023/10/18 05:27:38;;;;;;;15.50;11.10;;;;;;;;;;5032107;28;20399;-55
2023/10/18 05:35:35;;;;;;;16.75;12.15;;;;;;;;;;5031953;28;20026;-53
2023/10/18 05:43:12;;;;;;;27.42;13.77;;;;;;;;;;5031862;28;20025;-52
2023/10/18 05:45:41;;;;;;;25.08;13.35;;;;;;;;;;5031781;28;20072;-47
2023/10/18 05:48:17;;;;;;;18.00;12.90;;;;;;;;;;5031347;28;20033;-49
2023/10/18 05:50:49;;;;;;;31.13;13.00;;;;;;;;;;5024958;28;20031;-47
2023/10/18 05:53:18;;;;;;;20.77;13.68;;;;;;;;;;4996557;28;20034;-46
2023/10/18 05:55:54;;;;;;;17.75;13.40;;;;;;;;;;4994363;28;20026;-49
2023/10/18 05:58:26;;;;;;;20.90;12.77;;;;;;;;;;5011767;28;20021;-47
2023/10/18 06:00:56;;;;;;;18.48;14.77;;;;;;;;;;5011814;28;20033;-47
2023/10/18 06:03:25;;;;;;;20.17;14.82;;;;;;;;;;5012063;28;20029;-47
2023/10/18 06:05:55;;;;;;;25.25;13.93;;;;;;;;;;5011684;28;20075;-48
2023/10/18 06:08:22;;;;;;;18.73;14.27;;;;;;;;;;5011823;28;20034;-47
2023/10/18 06:10:56;;;;;;;23.15;14.57;;;;;;;;;;5011822;28;20026;-47
2023/10/18 06:13:23;;;;;;;19.42;12.77;;;;;;;;;;4994196;28;20062;-46
2023/10/18 06:15:50;;;;;;;18.67;11.85;;;;;;;;;;5011902;28;20075;-49
2023/10/18 06:18:40;;;;;;;16.15;11.85;;;;;;;;;;5011694;28;20061;-47
2023/10/18 06:21:11;;;;;;;23.20;10.50;;;;;;;;;;5030437;28;20045;-47
2023/10/18 06:23:38;;;;;;;13.45;9.30;;;;;;;;;;5046721;28;20103;-47
2023/10/18 06:26:27;;;;;;;11.93;9.63;;;;;;;;;;5046689;28;20179;-51
2023/10/18 06:28:54;;;;;;;15.25;9.55;;;;;;;;;;5031506;28;20120;-53
2023/10/18 06:31:21;;;;;;;15.67;9.03;;;;;;;;;;5031494;28;20156;-55
2023/10/18 06:33:54;;;;;;;14.73;9.52;;;;;;;;;;5031314;28;20033;-53
2023/10/18 06:36:21;;;;;;;13.43;8.57;;;;;;;;;;5031249;28;20033;-52
2023/10/18 06:38:48;;;;;;;12.18;8.38;;;;;;;;;;5031281;28;20449;-53
2023/10/18 06:41:18;;;;;;;17.35;9.90;;;;;;;;;;5031230;28;20104;-56
2023/10/18 06:43:45;;;;;;;15.13;9.02;;;;;;;;;;5032027;28;20030;-57
2023/10/18 06:46:27;;;;;;;15.43;8.70;;;;;;;;;;5017330;28;20026;-56
2023/10/18 06:49:00;;;;;;;13.40;8.00;;;;;;;;;;5034716;28;20472;-50
2023/10/18 06:51:33;;;;;;;15.02;8.90;;;;;;;;;;5035031;28;20036;-50
2023/10/18 06:54:03;;;;;;;13.02;9.00;;;;;;;;;;5035048;28;20057;-50
2023/10/18 06:56:39;;;;;;;14.05;8.77;;;;;;;;;;5034913;28;20099;-54
2023/10/18 06:59:07;;;;;;;14.40;9.18;;;;;;;;;;5043462;22;20013;-50
2023/10/18 07:01:33;;;;;;;20.02;10.55;;;;;;;;;;5046205;28;20094;-50
2023/10/18 07:04:04;;;;;;;19.48;10.52;;;;;;;;;;5035701;28;20483;-50
2023/10/18 07:06:35;;;;;;;18.10;10.38;;;;;;;;;;5034733;28;20033;-50
2023/10/18 07:09:09;;;;;;;10.57;8.27;;;;;;;;;;5034820;28;20032;-50
2023/10/18 07:11:39;;;;;;;16.77;10.73;;;;;;;;;;5034642;28;20542;-50
2023/10/18 07:14:05;;;;;;;17.15;10.73;;;;;;;;;;5034445;28;20037;-51
2023/10/18 07:19:06;;;;;;;16.83;10.82;;;;;;;;;;5016889;28;20034;-50
2023/10/18 07:21:32;;;;;;;14.80;11.48;;;;;;;;;;5034453;28;20028;-50
2023/10/18 07:24:02;;;;;;;22.47;10.77;;;;;;;;;;5034439;28;20029;-51
2023/10/18 07:26:29;;;;;;;17.08;10.43;;;;;;;;;;5034229;28;20025;-51
2023/10/18 07:28:56;;;;;;;24.25;12.00;;;;;;;;;;5034317;28;20033;-51
2023/10/18 07:31:32;;;;;;;21.27;13.80;;;;;;;;;;5054410;28;20471;-49
2023/10/18 07:34:02;;;;;;;19.95;11.70;;;;;;;;;;5054248;28;20102;-49
2023/10/18 07:36:29;;;;;;;20.65;11.73;;;;;;;;;;5053921;28;20037;-52
2023/10/18 07:38:55;;;;;;;17.93;11.33;;;;;;;;;;5054025;28;20029;-51
2023/10/18 07:41:26;;;;;;;19.80;10.85;;;;;;;;;;5054138;28;20263;-55
2023/10/18 07:43:57;;;;;;;23.48;11.50;;;;;;;;;;5054135;28;20028;-52
2023/10/18 07:46:27;;;;;;;18.55;11.18;;;;;;;;;;5034880;28;20021;-53
2023/10/18 07:49:03;;;;;;;21.55;11.70;;;;;;;;;;5035942;28;20044;-51
2023/10/18 07:51:32;;;;;;;21.42;11.52;;;;;;;;;;5019477;28;20040;-50
2023/10/18 07:54:02;;;;;;;18.67;11.40;;;;;;;;;;5035870;28;20027;-52
2023/10/18 07:56:31;;;;;;;15.45;11.32;;;;;;;;;;5053344;28;20036;-55
2023/10/18 08:01:52;;;;;;;19.17;10.65;;;;;;;;;;5053565;28;20043;-50
2023/10/18 08:04:22;;;;;;;16.02;10.60;;;;;;;;;;5035899;28;20410;-53
2023/10/18 08:06:49;;;;;;;21.42;11.20;;;;;;;;;;5053503;28;20471;-50
2023/10/18 08:09:20;;;;;;;19.05;11.40;;;;;;;;;;5053501;28;20045;-53
2023/10/18 08:11:50;;;;;;;17.58;11.18;;;;;;;;;;5053552;28;20495;-54
2023/10/18 08:14:16;;;;;;;15.93;10.25;;;;;;;;;;5053277;28;20017;-52
2023/10/18 08:16:43;;;;;;;15.48;9.73;;;;;;;;;;5053187;28;20399;-53
2023/10/18 08:19:11;;;;;;;15.10;10.68;;;;;;;;;;5053114;28;20525;-54
2023/10/18 08:21:38;;;;;;;14.88;10.43;;;;;;;;;;5053252;28;20506;-55
2023/10/18 08:24:08;;;;;;;13.00;10.32;;;;;;;;;;5053178;28;20112;-53
2023/10/18 08:26:47;;;;;;;19.33;11.48;;;;;;;;;;5035256;28;20059;-56
2023/10/18 08:29:14;;;;;;;23.42;11.13;;;;;;;;;;5053004;28;20029;-53
2023/10/18 08:31:44;;;;;;;16.45;11.43;;;;;;;;;;5053019;28;20017;-56
2023/10/18 08:34:15;;;;;;;18.85;10.63;;;;;;;;;;5052993;28;20461;-57
2023/10/18 08:36:50;;;;;;;17.05;10.75;;;;;;;;;;5052823;28;20036;-55
2023/10/18 08:39:25;;;;;;;15.25;10.70;;;;;;;;;;5034842;28;20037;-56
2023/10/18 08:41:56;;;;;;;22.35;10.90;;;;;;;;;;5052870;28;20064;-56
2023/10/18 08:44:24;;;;;;;14.65;10.70;;;;;;;;;;5052801;28;20033;-55
2023/10/18 08:49:45;;;;;;;14.93;10.93;;;;;;;;;;5052344;28;20033;-53
2023/10/18 08:52:11;;;;;;;16.80;10.45;;;;;;;;;;5052658;28;20397;-56
2023/10/18 08:54:41;;;;;;;14.88;10.35;;;;;;;;;;5052826;28;20380;-57
2023/10/18 08:57:11;;;;;;;18.58;11.20;;;;;;;;;;5052464;28;20115;-53
2023/10/18 08:59:43;;;;;;;21.08;13.23;;;;;;;;;;5052349;28;20445;-54
2023/10/18 09:02:23;;;;;;;17.88;11.35;;;;;;;;;;5052273;28;20494;-53
2023/10/18 09:04:54;;;;;;;17.33;10.07;;;;;;;;;;5034608;28;20617;-55
2023/10/18 09:07:23;;;;;;;15.13;10.55;;;;;;;;;;5051467;28;20057;-57
2023/10/18 09:09:57;;;;;;;18.48;11.57;;;;;;;;;;5052214;28;20036;-57
2023/10/18 09:15:35;;;;;;;17.23;10.05;;;;;;;;;;5034758;28;20052;-54
2023/10/18 09:18:05;;;;;;;16.17;9.77;;;;;;;;;;5051965;28;20398;-58
2023/10/18 09:20:31;;;;;;;29.98;10.05;;;;;;;;;;5034348;28;20029;-57
2023/10/18 09:23:05;;;;;;;13.00;10.02;;;;;;;;;;5051912;28;20380;-56
2023/10/18 09:25:48;;;;;;;23.08;9.38;;;;;;;;;;5052267;28;20093;-55
2023/10/18 09:28:32;;;;;;;12.65;9.15;;;;;;;;;;5034049;28;20388;-53
2023/10/18 09:31:11;;;;;;;14.98;9.18;;;;;;;;;;5051860;28;20036;-57
2023/10/18 09:33:58;;;;;;;18.98;9.45;;;;;;;;;;5051860;28;20098;-55
2023/10/18 09:36:24;;;;;;;17.38;9.63;;;;;;;;;;5034084;28;20455;-55
2023/10/18 09:38:51;;;;;;;12.57;8.95;;;;;;;;;;5051765;28;20025;-55
2023/10/18 09:41:18;;;;;;;13.27;8.52;;;;;;;;;;5034070;28;20098;-56
2023/10/18 09:43:46;;;;;;;11.20;8.13;;;;;;;;;;5051694;28;20025;-56
2023/10/18 09:46:16;;;;;;;11.05;8.48;;;;;;;;;;5051600;28;20033;-52
2023/10/18 09:48:43;;;;;;;14.93;9.40;;;;;;;;;;5051900;28;20550;-54
2023/10/18 09:51:11;;;;;;;13.30;9.45;;;;;;;;;;5051597;28;20036;-57
2023/10/18 09:53:44;;;;;;;18.75;10.05;;;;;;;;;;5051639;28;20036;-55
2023/10/18 09:56:14;;;;;;;16.58;10.18;;;;;;;;;;5051884;28;20033;-55
2023/10/18 09:58:42;;;;;;;18.85;8.80;;;;;;;;;;5051543;28;20098;-55
2023/10/18 10:01:57;;;;;;;20.33;11.23;;;;;;;;;;5051597;28;20044;-52
2023/10/18 10:04:18;;;;;;;15.18;10.13;;;;;;;;;;5033492;28;20037;-56
2023/10/18 10:06:47;;;;;;;15.13;10.50;;;;;;;;;;5051208;28;20118;-58
2023/10/18 10:09:14;;;;;;;17.00;10.27;;;;;;;;;;5051271;28;20492;-53
2023/10/18 10:11:43;;;;;;;24.70;10.93;;;;;;;;;;5051362;28;20051;-57
2023/10/18 10:14:11;;;;;;;24.08;11.60;;;;;;;;;;5049919;28;20025;-57
2023/10/18 10:16:37;;;;;;;16.38;10.07;;;;;;;;;;5037550;28;20036;-52
2023/10/18 10:19:05;;;;;;;16.45;10.07;;;;;;;;;;5017281;28;20116;-50
2023/10/18 10:21:35;;;;;;;14.65;10.88;;;;;;;;;;5033132;28;20040;-53
2023/10/18 10:24:29;;;;;;;23.42;10.70;;;;;;;;;;5035448;28;20033;-55
2023/10/18 10:26:48;;;;;;;17.77;10.48;;;;;;;;;;5017422;28;20487;-54
2023/10/18 10:31:56;;;;;;;17.48;11.00;;;;;;;;;;5049996;28;20526;-58
2023/10/18 10:34:37;;;;;;;15.85;9.98;;;;;;;;;;5040865;28;20021;-53
2023/10/18 10:37:05;;;;;;;16.13;9.73;;;;;;;;;;5071346;28;20025;-53
2023/10/18 10:39:32;;;;;;;13.52;9.40;;;;;;;;;;5039875;28;20029;-52
2023/10/18 10:42:01;;;;;;;16.95;9.57;;;;;;;;;;5037305;28;20434;-56
2023/10/18 10:44:30;;;;;;;17.88;9.82;;;;;;;;;;5035352;28;20091;-52
2023/10/18 10:47:29;;;;;;;15.98;11.00;;;;;;;;;;5032403;28;20400;-52
2023/10/18 10:49:59;;;;;;;14.95;9.20;;;;;;;;;;5019168;28;20045;-52
2023/10/18 10:52:29;;;;;;;14.52;8.82;;;;;;;;;;5034873;28;20044;-55
2023/10/18 10:55:15;;;;;;;14.77;9.80;;;;;;;;;;5051159;28;20029;-52
2023/10/18 10:57:44;;;;;;;15.45;9.75;;;;;;;;;;5046970;28;20109;-56
2023/10/18 11:00:37;;;;;;;18.88;8.60;;;;;;;;;;5017316;28;20040;-53
2023/10/18 11:03:24;;;;;;;14.38;9.40;;;;;;;;;;5030339;28;20061;-54
2023/10/18 11:05:54;;;;;;;21.05;9.40;;;;;;;;;;5034617;28;20026;-53
2023/10/18 11:08:20;;;;;;;18.40;8.85;;;;;;;;;;5036656;28;20088;-56
2023/10/18 11:10:47;;;;;;;12.63;8.82;;;;;;;;;;5053813;28;20392;-53
2023/10/18 11:13:13;;;;;;;20.33;9.95;;;;;;;;;;5050686;28;20104;-52
2023/10/18 11:15:43;;;;;;;15.45;9.70;;;;;;;;;;5051583;28;20017;-56
2023/10/18 11:18:17;;;;;;;14.40;9.75;;;;;;;;;;5042119;28;20039;-56
2023/10/18 11:20:50;;;;;;;17.35;9.55;;;;;;;;;;5034662;28;20029;-51
2023/10/18 11:23:16;;;;;;;21.63;9.55;;;;;;;;;;5048464;28;20030;-52
2023/10/18 11:25:43;;;;;;;13.97;8.93;;;;;;;;;;5050979;28;20033;-54
2023/10/18 11:28:28;;;;;;;12.48;8.80;;;;;;;;;;5049880;28;20283;-54
2023/10/18 11:30:56;;;;;;;13.30;9.45;;;;;;;;;;5046174;28;20040;-55
2023/10/18 11:33:54;;;;;;;15.18;10.00;;;;;;;;;;5046253;28;20029;-52
2023/10/18 11:36:20;;;;;;;14.57;10.93;;;;;;;;;;5036079;28;20059;-53
2023/10/18 11:41:35;;;;;;;16.58;10.07;;;;;;;;;;5050237;28;20025;-53
2023/10/18 11:44:10;;;;;;;14.20;9.57;;;;;;;;;;5054032;28;20100;-56
2023/10/18 11:46:46;;;;;;;14.85;10.45;;;;;;;;;;5040801;28;20022;-51
2023/10/18 11:49:18;;;;;;;16.40;10.73;;;;;;;;;;5050291;28;20483;-55
2023/10/18 11:51:46;;;;;;;12.57;9.40;;;;;;;;;;5047788;28;20032;-53
2023/10/18 11:54:26;;;;;;;14.75;10.18;;;;;;;;;;5053778;28;20025;-52
2023/10/18 11:56:52;;;;;;;15.45;9.98;;;;;;;;;;5035012;28;20029;-55
2023/10/18 11:59:19;;;;;;;16.02;10.07;;;;;;;;;;5017694;28;20040;-54
2023/10/18 12:01:45;;;;;;;20.38;9.85;;;;;;;;;;5047645;28;20483;-55
2023/10/18 12:04:15;;;;;;;18.43;11.33;;;;;;;;;;5038672;28;20548;-51
2023/10/18 12:06:42;;;;;;;16.15;10.32;;;;;;;;;;5034648;28;20381;-52
2023/10/18 12:11:41;;;;;;;15.48;9.95;;;;;;;;;;5042710;28;20541;-55
2023/10/18 12:14:08;;;;;;;17.77;11.98;;;;;;;;;;5053400;28;20017;-55
2023/10/18 12:16:34;;;;;;;13.68;9.70;;;;;;;;;;5020582;28;20034;-56
2023/10/18 12:19:00;;;;;;;18.42;11.70;;;;;;;;;;5046655;28;20021;-54
2023/10/18 12:21:30;;;;;;;17.05;11.65;;;;;;;;;;5035345;28;20033;-56
2023/10/18 12:23:57;;;;;;;18.70;11.98;;;;;;;;;;5053449;28;20033;-52
2023/10/18 12:26:26;;;;;;;18.50;11.45;;;;;;;;;;5024812;28;20067;-53
2023/10/18 12:28:55;;;;;;;14.15;10.95;;;;;;;;;;5037581;28;20491;-57
2023/10/18 12:31:27;;;;;;;17.17;12.48;;;;;;;;;;5024416;28;20078;-54
2023/10/18 12:34:00;;;;;;;17.48;12.48;;;;;;;;;;5009121;28;20037;-52
2023/10/18 12:36:33;;;;;;;16.77;11.68;;;;;;;;;;5053003;28;20040;-55
2023/10/18 12:39:00;;;;;;;17.15;11.55;;;;;;;;;;5030399;28;20500;-55
2023/10/18 12:41:32;;;;;;;16.15;12.25;;;;;;;;;;5005831;28;20100;-53
2023/10/18 12:44:01;;;;;;;17.10;10.77;;;;;;;;;;5033026;28;20175;-54
2023/10/18 12:46:28;;;;;;;15.77;12.02;;;;;;;;;;5010945;28;20026;-53
2023/10/18 12:48:56;;;;;;;15.68;11.25;;;;;;;;;;5040996;28;20518;-53
2023/10/18 12:51:30;;;;;;;20.92;12.10;;;;;;;;;;5039865;28;20040;-52
2023/10/18 12:54:03;;;;;;;19.83;12.38;;;;;;;;;;5036627;28;20152;-51
2023/10/18 12:59:11;;;;;;;21.43;13.37;;;;;;;;;;5072413;28;20031;-55
2023/10/18 13:01:58;;;;;;;17.15;11.68;;;;;;;;;;5028605;28;20060;-51
2023/10/18 13:04:24;;;;;;;19.13;13.10;;;;;;;;;;5030200;28;20025;-48
2023/10/18 13:06:50;;;;;;;14.83;11.60;;;;;;;;;;5030422;28;20471;-48
2023/10/18 13:09:21;;;;;;;21.27;12.30;;;;;;;;;;5017745;28;20022;-47
2023/10/18 13:11:53;;;;;;;19.67;11.82;;;;;;;;;;5012782;28;20272;-48
2023/10/18 13:14:29;;;;;;;20.35;13.40;;;;;;;;;;5021109;28;20026;-45
2023/10/18 13:16:56;;;;;;;19.00;12.27;;;;;;;;;;5014568;28;20045;-47
2023/10/18 13:19:27;;;;;;;20.27;11.95;;;;;;;;;;5032340;28;20033;-47
2023/10/18 13:21:54;;;;;;;16.88;12.00;;;;;;;;;;5032351;28;20045;-48
2023/10/18 13:24:28;;;;;;;18.60;12.73;;;;;;;;;;5014563;28;20029;-47
2023/10/18 13:27:03;;;;;;;17.13;11.80;;;;;;;;;;5030652;28;20033;-44
2023/10/18 13:31:57;;;;;;;16.50;12.05;;;;;;;;;;5032284;28;20029;-46
2023/10/18 13:34:24;;;;;;;57.55;36.28;;;;;;;;;;5032155;28;20034;-47
2023/10/18 13:36:52;;;;;;;17.58;12.85;;;;;;;;;;5031879;28;20021;-46
2023/10/18 13:39:19;;;;;;;16.38;13.07;;;;;;;;;;5013625;28;20086;-48
2023/10/18 13:41:49;;;;;;;;;;;;;;;;;;5014762;28;20105;-47
2023/10/18 13:44:19;;;;;;;18.48;11.48;;;;;;;;;;5014335;28;19920;-47
2023/10/18 13:46:50;;;;;;;19.27;12.63;;;;;;;;;;5026028;28;20034;-50
2023/10/18 13:49:17;;;;;;;15.20;12.65;;;;;;;;;;5012005;28;20536;-48
2023/10/18 13:51:45;;;;;;;16.88;13.02;;;;;;;;;;5012729;28;20026;-52
2023/10/18 13:54:12;;;;;;;26.05;14.52;;;;;;;;;;5020821;28;20518;-47
2023/10/18 13:56:38;;;;;;;;;;;;;;;;;;5030325;28;20021;-47
2023/10/18 13:59:05;;;;;;;20.05;14.05;;;;;;;;;;5031851;28;20011;-47
2023/10/18 14:01:31;;;;;;;16.85;13.85;;;;;;;;;;5019370;28;20125;-48
2023/10/18 14:04:01;;;;;;;19.65;13.77;;;;;;;;;;5012991;28;20105;-49
2023/10/18 14:06:32;;;;;;;18.40;14.15;;;;;;;;;;5012207;28;20105;-47
2023/10/18 14:08:59;;;;;;;17.70;13.32;;;;;;;;;;5031498;28;20104;-47
2023/10/18 14:11:25;;;;;;;16.17;13.60;;;;;;;;;;5031456;28;20487;-48
2023/10/18 14:13:55;;;;;;;19.05;13.13;;;;;;;;;;5031618;28;20034;-46
2023/10/18 14:16:21;;;;;;;18.05;13.57;;;;;;;;;;5031348;28;20034;-47
2023/10/18 14:18:48;;;;;;;24.90;13.98;;;;;;;;;;5013744;28;20037;-47
2023/10/18 14:21:14;;;;;;;;;;;;;;;;;;5031940;28;20037;-47
2023/10/18 14:23:40;;;;;;;18.95;13.43;;;;;;;;;;5031459;28;20550;-47
2023/10/18 14:26:07;;;;;;;20.40;15.25;;;;;;;;;;5013638;28;20053;-47
2023/10/18 14:28:33;;;;;;;16.27;13.70;;;;;;;;;;5031588;28;20097;-48
2023/10/18 14:30:59;;;;;;;20.95;15.20;;;;;;;;;;5031363;28;20071;-48
2023/10/18 14:33:28;;;;;;;23.10;15.07;;;;;;;;;;5031271;28;20053;-46
2023/10/18 14:35:54;;;;;;;25.10;15.75;;;;;;;;;;5013618;28;20042;-50
2023/10/18 14:38:20;;;;;;;21.80;15.13;;;;;;;;;;5031375;28;20144;-47
2023/10/18 14:40:46;;;;;;;19.60;14.73;;;;;;;;;;5030409;28;20025;-47
2023/10/18 14:43:13;;;;;;;19.67;14.98;;;;;;;;;;4997110;28;20033;-48
2023/10/18 14:45:42;;;;;;;22.23;16.85;;;;;;;;;;5031161;28;20040;-50
2023/10/18 14:48:09;;;;;;;20.95;14.75;;;;;;;;;;5031120;28;20111;-48
2023/10/18 14:50:36;;;;;;;26.70;16.23;;;;;;;;;;5031230;28;20033;-47
2023/10/18 14:53:03;;;;;;;22.03;15.87;;;;;;;;;;5031321;28;20021;-47
2023/10/18 14:55:29;;;;;;;19.10;14.93;;;;;;;;;;5031165;28;20483;-47
2023/10/18 14:57:55;;;;;;;22.40;16.10;;;;;;;;;;5031030;28;20032;-48
2023/10/18 15:00:21;;;;;;;19.35;15.65;;;;;;;;;;5013243;28;20843;-51
2023/10/18 15:02:48;;;;;;;24.07;17.20;;;;;;;;;;5030996;28;20026;-47
2023/10/18 15:05:17;;;;;;;18.75;14.90;;;;;;;;;;5032580;28;20083;-48
2023/10/18 15:07:43;;;;;;;22.55;16.58;;;;;;;;;;5017118;28;20357;-49
2023/10/18 15:10:09;;;;;;;19.25;14.57;;;;;;;;;;5034536;28;20626;-47
2023/10/18 15:12:36;;;;;;;22.20;15.13;;;;;;;;;;5016934;28;20175;-47
2023/10/18 15:15:03;;;;;;;20.52;14.95;;;;;;;;;;5034468;28;20080;-46
2023/10/18 15:17:29;;;;;;;19.10;14.13;;;;;;;;;;5016639;28;20033;-48
2023/10/18 15:19:55;;;;;;;18.03;14.90;;;;;;;;;;5034499;28;20029;-49
2023/10/18 15:22:22;;;;;;;20.38;15.77;;;;;;;;;;5034821;28;20029;-47
2023/10/18 15:24:54;;;;;;;20.63;15.85;;;;;;;;;;5034298;28;20025;-47
2023/10/18 15:27:20;;;;;;;18.95;14.98;;;;;;;;;;5016245;28;20144;-47
2023/10/18 15:29:47;;;;;;;20.52;15.40;;;;;;;;;;5016480;28;20026;-47
2023/10/18 15:32:14;;;;;;;26.83;17.53;;;;;;;;;;5034323;28;20041;-46
2023/10/18 15:34:41;;;;;;;30.27;18.05;;;;;;;;;;5034389;28;20029;-47
2023/10/18 15:37:09;;;;;;;22.05;17.33;;;;;;;;;;5034175;28;20026;-47
2023/10/18 15:39:36;;;;;;;22.63;16.30;;;;;;;;;;5034088;28;20159;-47